sensor_id;sensor_type;location;lat;lon;timestamp;temperature;humidity
18894;DHT22;9579;49.488;8.226;2023-06-14T01:33:26;20.00;64.80
18894;DHT22;9579;49.488;8.226;2023-06-14T01:36:14;20.00;65.60
18894;DHT22;9579;49.488;8.226;2023-06-14T01:39:01;20.00;65.20
18894;DHT22;9579;49.488;8.226;2023-06-14T01:41:49;20.00;65.00
18894;DHT22;9579;49.488;8.226;2023-06-14T01:44:37;19.90;65.20
18894;DHT22;9579;49.488;8.226;2023-06-14T01:47:24;19.90;65.60
18894;DHT22;9579;49.488;8.226;2023-06-14T01:50:12;19.90;65.50
18894;DHT22;9579;49.488;8.226;2023-06-14T01:52:59;19.90;65.50
18894;DHT22;9579;49.488;8.226;2023-06-14T01:55:47;19.80;65.10
18894;DHT22;9579;49.488;8.226;2023-06-14T01:58:34;19.90;65.20
18894;DHT22;9579;49.488;8.226;2023-06-14T02:01:22;19.90;65.50
18894;DHT22;9579;49.488;8.226;2023-06-14T02:04:09;19.90;65.20
18894;DHT22;9579;49.488;8.226;2023-06-14T02:06:57;19.80;66.00
18894;DHT22;9579;49.488;8.226;2023-06-14T02:09:44;19.90;65.30
18894;DHT22;9579;49.488;8.226;2023-06-14T02:12:31;19.70;65.00
18894;DHT22;9579;49.488;8.226;2023-06-14T02:15:18;19.80;65.60
18894;DHT22;9579;49.488;8.226;2023-06-14T02:18:05;19.70;65.30
18894;DHT22;9579;49.488;8.226;2023-06-14T02:20:52;19.70;65.60
18894;DHT22;9579;49.488;8.226;2023-06-14T02:23:40;19.70;66.00
18894;DHT22;9579;49.488;8.226;2023-06-14T02:26:27;19.70;65.60
18894;DHT22;9579;49.488;8.226;2023-06-14T02:29:15;19.80;65.60
18894;DHT22;9579;49.488;8.226;2023-06-14T02:32:03;19.90;66.00
18894;DHT22;9579;49.488;8.226;2023-06-14T02:34:50;19.90;66.00
18894;DHT22;9579;49.488;8.226;2023-06-14T02:37:37;19.90;66.50
18894;DHT22;9579;49.488;8.226;2023-06-14T02:40:25;19.90;65.50
18894;DHT22;9579;49.488;8.226;2023-06-14T02:43:12;19.90;65.40
18894;DHT22;9579;49.488;8.226;2023-06-14T02:45:59;20.00;66.40
18894;DHT22;9579;49.488;8.226;2023-06-14T02:48:46;19.90;64.90
18894;DHT22;9579;49.488;8.226;2023-06-14T02:51:33;19.90;65.70
18894;DHT22;9579;49.488;8.226;2023-06-14T02:54:20;19.90;66.40
18894;DHT22;9579;49.488;8.226;2023-06-14T02:57:09;19.80;65.00
18894;DHT22;9579;49.488;8.226;2023-06-14T02:59:56;19.70;65.30
18894;DHT22;9579;49.488;8.226;2023-06-14T03:02:43;19.60;66.60
18894;DHT22;9579;49.488;8.226;2023-06-14T03:05:30;19.60;66.00
18894;DHT22;9579;49.488;8.226;2023-06-14T03:08:17;19.70;67.20
18894;DHT22;9579;49.488;8.226;2023-06-14T03:11:05;19.70;66.60
18894;DHT22;9579;49.488;8.226;2023-06-14T03:13:53;19.70;67.00
18894;DHT22;9579;49.488;8.226;2023-06-14T03:16:41;19.70;66.40
18894;DHT22;9579;49.488;8.226;2023-06-14T03:19:28;19.70;66.80
18894;DHT22;9579;49.488;8.226;2023-06-14T03:22:15;19.70;67.00
18894;DHT22;9579;49.488;8.226;2023-06-14T03:25:03;19.70;66.60
18894;DHT22;9579;49.488;8.226;2023-06-14T03:27:51;19.70;66.50
18894;DHT22;9579;49.488;8.226;2023-06-14T03:30:39;19.60;66.40
18894;DHT22;9579;49.488;8.226;2023-06-14T03:33:26;19.60;67.30
18894;DHT22;9579;49.488;8.226;2023-06-14T03:36:13;19.60;66.90
18894;DHT22;9579;49.488;8.226;2023-06-14T03:39:00;19.50;67.10
18894;DHT22;9579;49.488;8.226;2023-06-14T03:41:47;19.50;66.90
18894;DHT22;9579;49.488;8.226;2023-06-14T03:44:34;19.50;68.20
18894;DHT22;9579;49.488;8.226;2023-06-14T03:47:23;19.40;67.10
18894;DHT22;9579;49.488;8.226;2023-06-14T03:50:10;19.40;67.60
18894;DHT22;9579;49.488;8.226;2023-06-14T03:52:58;19.30;67.80
18894;DHT22;9579;49.488;8.226;2023-06-14T03:55:47;19.20;67.80
18894;DHT22;9579;49.488;8.226;2023-06-14T03:58:34;19.20;68.80
18894;DHT22;9579;49.488;8.226;2023-06-14T04:01:22;19.20;68.20
18894;DHT22;9579;49.488;8.226;2023-06-14T04:04:16;19.20;68.80
18894;DHT22;9579;49.488;8.226;2023-06-14T04:07:04;19.20;68.90
18894;DHT22;9579;49.488;8.226;2023-06-14T04:09:51;19.20;68.60
18894;DHT22;9579;49.488;8.226;2023-06-14T04:12:38;19.20;68.40
18894;DHT22;9579;49.488;8.226;2023-06-14T04:15:25;19.20;69.40
18894;DHT22;9579;49.488;8.226;2023-06-14T04:18:13;19.20;69.20
18894;DHT22;9579;49.488;8.226;2023-06-14T04:21:02;19.30;68.80
18894;DHT22;9579;49.488;8.226;2023-06-14T04:23:50;19.30;69.00
18894;DHT22;9579;49.488;8.226;2023-06-14T04:26:38;19.30;68.50
18894;DHT22;9579;49.488;8.226;2023-06-14T04:29:26;19.30;69.30
18894;DHT22;9579;49.488;8.226;2023-06-14T04:32:15;19.30;69.30
18894;DHT22;9579;49.488;8.226;2023-06-14T04:35:05;19.40;69.60
18894;DHT22;9579;49.488;8.226;2023-06-14T04:37:54;19.50;69.80
18894;DHT22;9579;49.488;8.226;2023-06-14T04:40:41;19.50;69.20
18894;DHT22;9579;49.488;8.226;2023-06-14T04:43:30;19.50;69.20
18894;DHT22;9579;49.488;8.226;2023-06-14T04:46:23;19.50;69.80
18894;DHT22;9579;49.488;8.226;2023-06-14T04:49:10;19.50;70.00
18894;DHT22;9579;49.488;8.226;2023-06-14T04:52:00;19.60;70.10
18894;DHT22;9579;49.488;8.226;2023-06-14T04:54:48;19.70;70.30
18894;DHT22;9579;49.488;8.226;2023-06-14T04:57:38;19.70;69.90
18894;DHT22;9579;49.488;8.226;2023-06-14T05:00:26;19.70;70.00
18894;DHT22;9579;49.488;8.226;2023-06-14T05:03:13;19.80;70.10
18894;DHT22;9579;49.488;8.226;2023-06-14T05:06:00;19.80;69.50
18894;DHT22;9579;49.488;8.226;2023-06-14T05:08:47;19.80;69.60
18894;DHT22;9579;49.488;8.226;2023-06-14T05:11:35;19.90;70.00
18894;DHT22;9579;49.488;8.226;2023-06-14T05:14:22;19.90;69.40
18894;DHT22;9579;49.488;8.226;2023-06-14T05:17:09;20.00;69.90
18894;DHT22;9579;49.488;8.226;2023-06-14T05:19:56;20.10;69.50
18894;DHT22;9579;49.488;8.226;2023-06-14T05:22:43;20.20;69.40
18894;DHT22;9579;49.488;8.226;2023-06-14T05:25:30;20.30;69.40
18894;DHT22;9579;49.488;8.226;2023-06-14T05:28:19;20.40;69.80
18894;DHT22;9579;49.488;8.226;2023-06-14T05:31:06;20.60;69.40
18894;DHT22;9579;49.488;8.226;2023-06-14T05:33:53;20.60;68.90
18894;DHT22;9579;49.488;8.226;2023-06-14T05:36:40;20.70;68.40
18894;DHT22;9579;49.488;8.226;2023-06-14T05:39:27;20.90;67.70
18894;DHT22;9579;49.488;8.226;2023-06-14T05:42:14;20.90;67.30
18894;DHT22;9579;49.488;8.226;2023-06-14T05:45:03;21.10;67.30
18894;DHT22;9579;49.488;8.226;2023-06-14T05:47:52;21.20;67.10
18894;DHT22;9579;49.488;8.226;2023-06-14T05:50:40;21.30;67.20
18894;DHT22;9579;49.488;8.226;2023-06-14T05:53:27;21.40;66.20
18894;DHT22;9579;49.488;8.226;2023-06-14T05:56:14;21.60;66.20
18894;DHT22;9579;49.488;8.226;2023-06-14T05:59:01;21.80;66.40
18894;DHT22;9579;49.488;8.226;2023-06-14T06:01:49;21.90;65.70
18894;DHT22;9579;49.488;8.226;2023-06-14T06:04:36;22.00;65.90
18894;DHT22;9579;49.488;8.226;2023-06-14T06:07:23;22.00;65.20
18894;DHT22;9579;49.488;8.226;2023-06-14T06:10:10;22.20;64.80
18894;DHT22;9579;49.488;8.226;2023-06-14T06:12:57;22.20;65.50
18894;DHT22;9579;49.488;8.226;2023-06-14T06:15:44;22.30;65.40
18894;DHT22;9579;49.488;8.226;2023-06-14T06:18:33;22.40;64.70
18894;DHT22;9579;49.488;8.226;2023-06-14T06:21:20;22.50;64.30
18894;DHT22;9579;49.488;8.226;2023-06-14T06:24:07;22.60;63.80
18894;DHT22;9579;49.488;8.226;2023-06-14T06:26:54;22.60;64.20
18894;DHT22;9579;49.488;8.226;2023-06-14T06:29:42;22.60;64.20
18894;DHT22;9579;49.488;8.226;2023-06-14T06:32:29;23.00;63.80
18894;DHT22;9579;49.488;8.226;2023-06-14T06:35:17;23.10;63.30
18894;DHT22;9579;49.488;8.226;2023-06-14T06:38:04;23.30;63.40
18894;DHT22;9579;49.488;8.226;2023-06-14T06:40:51;23.40;63.50
18894;DHT22;9579;49.488;8.226;2023-06-14T06:43:40;23.60;62.50
18894;DHT22;9579;49.488;8.226;2023-06-14T06:46:27;23.80;62.60
18894;DHT22;9579;49.488;8.226;2023-06-14T06:49:14;23.80;63.10
18894;DHT22;9579;49.488;8.226;2023-06-14T06:52:03;23.80;62.20
18894;DHT22;9579;49.488;8.226;2023-06-14T06:54:50;24.00;62.10
18894;DHT22;9579;49.488;8.226;2023-06-14T06:57:40;24.10;62.50
18894;DHT22;9579;49.488;8.226;2023-06-14T07:00:27;24.30;62.20
18894;DHT22;9579;49.488;8.226;2023-06-14T07:03:14;24.40;61.60
18894;DHT22;9579;49.488;8.226;2023-06-14T07:06:01;24.60;60.60
18894;DHT22;9579;49.488;8.226;2023-06-14T07:08:49;24.90;60.30
18894;DHT22;9579;49.488;8.226;2023-06-14T07:11:36;25.00;59.90
18894;DHT22;9579;49.488;8.226;2023-06-14T07:14:23;24.50;60.60
18894;DHT22;9579;49.488;8.226;2023-06-14T07:17:10;24.80;60.50
18894;DHT22;9579;49.488;8.226;2023-06-14T07:19:57;24.70;60.90
18894;DHT22;9579;49.488;8.226;2023-06-14T07:22:44;25.00;59.50
18894;DHT22;9579;49.488;8.226;2023-06-14T07:25:33;25.20;60.50
18894;DHT22;9579;49.488;8.226;2023-06-14T07:28:20;25.40;59.10
18894;DHT22;9579;49.488;8.226;2023-06-14T07:31:07;25.70;59.20
18894;DHT22;9579;49.488;8.226;2023-06-14T07:33:54;26.10;58.10
18894;DHT22;9579;49.488;8.226;2023-06-14T07:36:41;26.30;57.60
18894;DHT22;9579;49.488;8.226;2023-06-14T07:39:30;26.40;57.60
18894;DHT22;9579;49.488;8.226;2023-06-14T07:42:18;26.70;57.60
18894;DHT22;9579;49.488;8.226;2023-06-14T07:45:06;26.80;56.60
18894;DHT22;9579;49.488;8.226;2023-06-14T07:47:53;26.50;56.30
18894;DHT22;9579;49.488;8.226;2023-06-14T07:50:40;26.80;57.10
18894;DHT22;9579;49.488;8.226;2023-06-14T07:53:27;26.70;56.20
18894;DHT22;9579;49.488;8.226;2023-06-14T07:56:14;26.70;57.90
18894;DHT22;9579;49.488;8.226;2023-06-14T07:59:03;26.90;56.70
18894;DHT22;9579;49.488;8.226;2023-06-14T08:01:51;27.30;56.20
18894;DHT22;9579;49.488;8.226;2023-06-14T08:04:38;27.30;55.60
18894;DHT22;9579;49.488;8.226;2023-06-14T08:07:26;27.50;56.10
18894;DHT22;9579;49.488;8.226;2023-06-14T08:10:13;27.60;55.80
18894;DHT22;9579;49.488;8.226;2023-06-14T08:13:00;27.60;55.90
18894;DHT22;9579;49.488;8.226;2023-06-14T08:15:48;27.70;55.50
18894;DHT22;9579;49.488;8.226;2023-06-14T08:18:35;27.50;55.80
18894;DHT22;9579;49.488;8.226;2023-06-14T08:21:22;28.00;55.10
18894;DHT22;9579;49.488;8.226;2023-06-14T08:24:11;28.10;55.20
18894;DHT22;9579;49.488;8.226;2023-06-14T08:26:58;28.40;54.40
18894;DHT22;9579;49.488;8.226;2023-06-14T08:29:47;28.20;53.80
18894;DHT22;9579;49.488;8.226;2023-06-14T08:32:35;27.60;54.80
18894;DHT22;9579;49.488;8.226;2023-06-14T08:35:22;27.60;55.70
18894;DHT22;9579;49.488;8.226;2023-06-14T08:38:10;28.20;55.10
18894;DHT22;9579;49.488;8.226;2023-06-14T08:40:57;28.40;53.40
18894;DHT22;9579;49.488;8.226;2023-06-14T08:43:44;27.90;54.30
18894;DHT22;9579;49.488;8.226;2023-06-14T08:46:32;28.50;53.30
18894;DHT22;9579;49.488;8.226;2023-06-14T08:49:22;28.70;52.50
18894;DHT22;9579;49.488;8.226;2023-06-14T08:52:10;28.50;52.80
18894;DHT22;9579;49.488;8.226;2023-06-14T08:54:58;28.80;52.30
18894;DHT22;9579;49.488;8.226;2023-06-14T08:57:48;29.10;51.30
18894;DHT22;9579;49.488;8.226;2023-06-14T09:00:36;28.90;51.80
18894;DHT22;9579;49.488;8.226;2023-06-14T09:03:24;28.20;51.20
18894;DHT22;9579;49.488;8.226;2023-06-14T09:06:17;28.00;52.30
18894;DHT22;9579;49.488;8.226;2023-06-14T09:09:04;28.40;53.10
18894;DHT22;9579;49.488;8.226;2023-06-14T09:11:53;28.80;49.80
18894;DHT22;9579;49.488;8.226;2023-06-14T09:14:40;28.70;50.30
18894;DHT22;9579;49.488;8.226;2023-06-14T09:17:28;28.70;48.90
18894;DHT22;9579;49.488;8.226;2023-06-14T09:20:15;28.80;48.70
18894;DHT22;9579;49.488;8.226;2023-06-14T09:23:05;28.30;50.50
18894;DHT22;9579;49.488;8.226;2023-06-14T09:25:53;28.40;50.80
18894;DHT22;9579;49.488;8.226;2023-06-14T09:28:44;29.00;50.20
18894;DHT22;9579;49.488;8.226;2023-06-14T09:31:31;29.40;49.90
18894;DHT22;9579;49.488;8.226;2023-06-14T09:34:18;29.40;48.70
18894;DHT22;9579;49.488;8.226;2023-06-14T09:37:09;29.10;49.20
18894;DHT22;9579;49.488;8.226;2023-06-14T09:39:58;29.20;50.10
18894;DHT22;9579;49.488;8.226;2023-06-14T09:42:45;29.50;49.20
18894;DHT22;9579;49.488;8.226;2023-06-14T09:45:33;28.30;50.80
18894;DHT22;9579;49.488;8.226;2023-06-14T09:48:20;26.90;52.30
18894;DHT22;9579;49.488;8.226;2023-06-14T09:51:09;25.80;54.00
18894;DHT22;9579;49.488;8.226;2023-06-14T09:54:00;26.30;53.90
18894;DHT22;9579;49.488;8.226;2023-06-14T09:56:51;26.70;53.20
18894;DHT22;9579;49.488;8.226;2023-06-14T09:59:41;27.30;53.00
18894;DHT22;9579;49.488;8.226;2023-06-14T10:02:29;28.00;51.10
18894;DHT22;9579;49.488;8.226;2023-06-14T10:05:19;28.50;50.20
18894;DHT22;9579;49.488;8.226;2023-06-14T10:08:09;29.20;48.80
18894;DHT22;9579;49.488;8.226;2023-06-14T10:10:57;28.40;50.00
18894;DHT22;9579;49.488;8.226;2023-06-14T10:13:47;27.50;51.50
18894;DHT22;9579;49.488;8.226;2023-06-14T10:16:37;28.40;51.70
18894;DHT22;9579;49.488;8.226;2023-06-14T10:19:29;28.60;50.50
18894;DHT22;9579;49.488;8.226;2023-06-14T10:22:24;28.80;50.80
18894;DHT22;9579;49.488;8.226;2023-06-14T10:25:13;28.90;50.10
18894;DHT22;9579;49.488;8.226;2023-06-14T10:28:16;29.50;50.10
18894;DHT22;9579;49.488;8.226;2023-06-14T10:31:10;29.80;49.00
18894;DHT22;9579;49.488;8.226;2023-06-14T10:33:57;30.30;48.50
18894;DHT22;9579;49.488;8.226;2023-06-14T10:36:44;31.00;48.50
18894;DHT22;9579;49.488;8.226;2023-06-14T10:39:32;30.70;47.80
18894;DHT22;9579;49.488;8.226;2023-06-14T10:42:19;30.80;47.40
18894;DHT22;9579;49.488;8.226;2023-06-14T10:45:13;31.30;46.60
18894;DHT22;9579;49.488;8.226;2023-06-14T10:48:01;30.40;47.40
18894;DHT22;9579;49.488;8.226;2023-06-14T10:50:48;30.90;46.70
18894;DHT22;9579;49.488;8.226;2023-06-14T10:53:40;31.50;46.30
18894;DHT22;9579;49.488;8.226;2023-06-14T10:56:28;31.80;45.50
18894;DHT22;9579;49.488;8.226;2023-06-14T10:59:16;31.10;45.10
18894;DHT22;9579;49.488;8.226;2023-06-14T11:02:24;31.00;46.50
18894;DHT22;9579;49.488;8.226;2023-06-14T11:05:15;31.50;45.70
18894;DHT22;9579;49.488;8.226;2023-06-14T11:08:18;31.70;45.80
18894;DHT22;9579;49.488;8.226;2023-06-14T11:11:09;31.60;45.90
18894;DHT22;9579;49.488;8.226;2023-06-14T11:13:56;30.90;47.60
18894;DHT22;9579;49.488;8.226;2023-06-14T11:16:48;29.40;48.80
18894;DHT22;9579;49.488;8.226;2023-06-14T11:19:35;29.50;49.80
18894;DHT22;9579;49.488;8.226;2023-06-14T11:22:23;30.00;49.00
18894;DHT22;9579;49.488;8.226;2023-06-14T11:25:11;31.00;47.10
18894;DHT22;9579;49.488;8.226;2023-06-14T11:27:58;30.90;46.60
18894;DHT22;9579;49.488;8.226;2023-06-14T11:30:45;30.80;47.40
18894;DHT22;9579;49.488;8.226;2023-06-14T11:33:34;31.80;46.50
18894;DHT22;9579;49.488;8.226;2023-06-14T11:36:21;31.80;45.90
18894;DHT22;9579;49.488;8.226;2023-06-14T11:39:12;30.90;43.90
18894;DHT22;9579;49.488;8.226;2023-06-14T11:42:01;31.60;46.90
18894;DHT22;9579;49.488;8.226;2023-06-14T11:44:49;31.30;44.90
18894;DHT22;9579;49.488;8.226;2023-06-14T11:47:37;31.60;46.80
18894;DHT22;9579;49.488;8.226;2023-06-14T11:50:24;32.60;44.90
18894;DHT22;9579;49.488;8.226;2023-06-14T11:53:12;33.10;44.50
18894;DHT22;9579;49.488;8.226;2023-06-14T11:56:01;32.60;43.20
18894;DHT22;9579;49.488;8.226;2023-06-14T11:58:48;32.70;43.70
18894;DHT22;9579;49.488;8.226;2023-06-14T12:01:36;33.00;44.20
18894;DHT22;9579;49.488;8.226;2023-06-14T12:04:26;33.50;45.20
18894;DHT22;9579;49.488;8.226;2023-06-14T12:07:14;33.90;43.30
18894;DHT22;9579;49.488;8.226;2023-06-14T12:10:07;34.10;42.70
18894;DHT22;9579;49.488;8.226;2023-06-14T12:13:00;34.20;43.20
18894;DHT22;9579;49.488;8.226;2023-06-14T12:15:54;34.40;42.20
18894;DHT22;9579;49.488;8.226;2023-06-14T12:18:41;34.60;42.60
18894;DHT22;9579;49.488;8.226;2023-06-14T12:21:29;33.80;43.80
18894;DHT22;9579;49.488;8.226;2023-06-14T12:24:16;34.20;44.20
18894;DHT22;9579;49.488;8.226;2023-06-14T12:27:04;34.70;42.40
18894;DHT22;9579;49.488;8.226;2023-06-14T12:30:00;35.10;42.10
18894;DHT22;9579;49.488;8.226;2023-06-14T12:32:48;35.20;42.30
18894;DHT22;9579;49.488;8.226;2023-06-14T12:35:37;35.60;41.40
18894;DHT22;9579;49.488;8.226;2023-06-14T12:38:24;35.50;41.80
18894;DHT22;9579;49.488;8.226;2023-06-14T12:41:11;35.40;41.30
18894;DHT22;9579;49.488;8.226;2023-06-14T12:44:00;35.20;41.00
18894;DHT22;9579;49.488;8.226;2023-06-14T12:46:51;35.20;41.50
18894;DHT22;9579;49.488;8.226;2023-06-14T12:49:40;35.00;43.00
18894;DHT22;9579;49.488;8.226;2023-06-14T12:52:27;35.10;43.90
18894;DHT22;9579;49.488;8.226;2023-06-14T12:55:15;36.00;44.80
18894;DHT22;9579;49.488;8.226;2023-06-14T12:58:02;36.70;43.20
18894;DHT22;9579;49.488;8.226;2023-06-14T13:00:49;36.90;40.90
18894;DHT22;9579;49.488;8.226;2023-06-14T13:03:37;37.00;42.40
18894;DHT22;9579;49.488;8.226;2023-06-14T13:06:24;37.20;41.00
18894;DHT22;9579;49.488;8.226;2023-06-14T13:09:11;37.20;40.70
18894;DHT22;9579;49.488;8.226;2023-06-14T13:12:00;37.10;41.40
18894;DHT22;9579;49.488;8.226;2023-06-14T13:14:47;37.40;41.50
18894;DHT22;9579;49.488;8.226;2023-06-14T13:17:34;37.50;42.10
18894;DHT22;9579;49.488;8.226;2023-06-14T13:20:25;38.00;39.50
18894;DHT22;9579;49.488;8.226;2023-06-14T13:23:12;37.90;39.40
18894;DHT22;9579;49.488;8.226;2023-06-14T13:25:59;38.00;39.60
18894;DHT22;9579;49.488;8.226;2023-06-14T13:28:46;37.20;40.50
18894;DHT22;9579;49.488;8.226;2023-06-14T13:31:33;37.60;40.10
18894;DHT22;9579;49.488;8.226;2023-06-14T13:34:20;37.80;40.80
18894;DHT22;9579;49.488;8.226;2023-06-14T13:37:09;38.40;41.10
18894;DHT22;9579;49.488;8.226;2023-06-14T13:39:56;38.80;40.90
18894;DHT22;9579;49.488;8.226;2023-06-14T13:42:43;39.00;38.60
18894;DHT22;9579;49.488;8.226;2023-06-14T13:45:30;39.10;38.90
18894;DHT22;9579;49.488;8.226;2023-06-14T13:48:17;38.30;39.20
18894;DHT22;9579;49.488;8.226;2023-06-14T13:51:04;37.70;39.30
18894;DHT22;9579;49.488;8.226;2023-06-14T13:53:53;37.40;41.20
18894;DHT22;9579;49.488;8.226;2023-06-14T13:56:41;37.00;41.20
18894;DHT22;9579;49.488;8.226;2023-06-14T13:59:28;37.30;40.50
18894;DHT22;9579;49.488;8.226;2023-06-14T14:02:15;37.60;39.30
18894;DHT22;9579;49.488;8.226;2023-06-14T14:05:02;37.70;40.50
18894;DHT22;9579;49.488;8.226;2023-06-14T14:07:49;38.00;39.70
18894;DHT22;9579;49.488;8.226;2023-06-14T14:10:39;38.20;39.90
18894;DHT22;9579;49.488;8.226;2023-06-14T14:13:26;38.50;40.80
18894;DHT22;9579;49.488;8.226;2023-06-14T14:16:14;38.70;39.70
18894;DHT22;9579;49.488;8.226;2023-06-14T14:19:01;38.80;38.20
18894;DHT22;9579;49.488;8.226;2023-06-14T14:21:48;38.20;39.10
18894;DHT22;9579;49.488;8.226;2023-06-14T14:24:35;38.60;40.20
18894;DHT22;9579;49.488;8.226;2023-06-14T14:27:24;37.80;40.00
18894;DHT22;9579;49.488;8.226;2023-06-14T14:30:11;38.00;39.60
18894;DHT22;9579;49.488;8.226;2023-06-14T14:32:59;38.50;40.70
18894;DHT22;9579;49.488;8.226;2023-06-14T14:35:46;36.80;37.80
18894;DHT22;9579;49.488;8.226;2023-06-14T14:38:33;37.20;38.30
18894;DHT22;9579;49.488;8.226;2023-06-14T14:41:20;37.20;38.90
18894;DHT22;9579;49.488;8.226;2023-06-14T14:44:09;37.10;40.30
18894;DHT22;9579;49.488;8.226;2023-06-14T14:46:56;36.70;39.70
18894;DHT22;9579;49.488;8.226;2023-06-14T14:49:43;36.30;40.10
18894;DHT22;9579;49.488;8.226;2023-06-14T14:52:30;35.80;40.50
18894;DHT22;9579;49.488;8.226;2023-06-14T14:55:17;34.90;42.10
18894;DHT22;9579;49.488;8.226;2023-06-14T14:58:04;34.70;41.60
18894;DHT22;9579;49.488;8.226;2023-06-14T15:00:53;35.10;41.60
18894;DHT22;9579;49.488;8.226;2023-06-14T15:03:40;35.20;42.00
18894;DHT22;9579;49.488;8.226;2023-06-14T15:06:27;35.50;42.50
18894;DHT22;9579;49.488;8.226;2023-06-14T15:09:14;35.80;41.50
18894;DHT22;9579;49.488;8.226;2023-06-14T15:12:01;35.50;41.60
18894;DHT22;9579;49.488;8.226;2023-06-14T15:14:50;36.00;41.50
18894;DHT22;9579;49.488;8.226;2023-06-14T15:17:39;36.40;41.70
18894;DHT22;9579;49.488;8.226;2023-06-14T15:20:26;36.70;41.70
18894;DHT22;9579;49.488;8.226;2023-06-14T15:23:13;37.00;40.60
18894;DHT22;9579;49.488;8.226;2023-06-14T15:26:05;37.10;40.00
18894;DHT22;9579;49.488;8.226;2023-06-14T15:28:52;37.10;38.70
18894;DHT22;9579;49.488;8.226;2023-06-14T15:31:41;37.20;39.60
18894;DHT22;9579;49.488;8.226;2023-06-14T15:34:29;37.30;39.20
18894;DHT22;9579;49.488;8.226;2023-06-14T15:37:16;37.20;39.30
18894;DHT22;9579;49.488;8.226;2023-06-14T15:40:04;37.00;38.90
18894;DHT22;9579;49.488;8.226;2023-06-14T15:42:51;36.90;40.20
18894;DHT22;9579;49.488;8.226;2023-06-14T15:45:38;36.60;40.30
18894;DHT22;9579;49.488;8.226;2023-06-14T15:48:25;36.30;40.50
18894;DHT22;9579;49.488;8.226;2023-06-14T15:51:14;35.80;40.90
18894;DHT22;9579;49.488;8.226;2023-06-14T15:54:01;35.50;41.80
18894;DHT22;9579;49.488;8.226;2023-06-14T15:56:48;35.30;41.00
18894;DHT22;9579;49.488;8.226;2023-06-14T15:59:35;34.80;41.60
18894;DHT22;9579;49.488;8.226;2023-06-14T16:02:22;34.10;41.60
18894;DHT22;9579;49.488;8.226;2023-06-14T16:05:11;33.60;42.60
18894;DHT22;9579;49.488;8.226;2023-06-14T16:07:59;32.90;42.90
18894;DHT22;9579;49.488;8.226;2023-06-14T16:10:46;32.70;43.40
18894;DHT22;9579;49.488;8.226;2023-06-14T16:13:33;32.30;44.30
18894;DHT22;9579;49.488;8.226;2023-06-14T16:16:20;32.00;44.10
18894;DHT22;9579;49.488;8.226;2023-06-14T16:19:07;31.60;43.70
18894;DHT22;9579;49.488;8.226;2023-06-14T16:21:55;31.20;45.00
18894;DHT22;9579;49.488;8.226;2023-06-14T16:24:43;31.20;45.50
18894;DHT22;9579;49.488;8.226;2023-06-14T16:27:30;31.00;44.70
18894;DHT22;9579;49.488;8.226;2023-06-14T16:30:17;30.80;45.40
18894;DHT22;9579;49.488;8.226;2023-06-14T16:33:04;29.60;46.70
18894;DHT22;9579;49.488;8.226;2023-06-14T16:35:51;30.00;46.80
18894;DHT22;9579;49.488;8.226;2023-06-14T16:38:38;30.40;46.50
18894;DHT22;9579;49.488;8.226;2023-06-14T16:41:26;30.60;46.60
18894;DHT22;9579;49.488;8.226;2023-06-14T16:44:14;30.70;46.70
18894;DHT22;9579;49.488;8.226;2023-06-14T16:47:01;30.80;46.30
18894;DHT22;9579;49.488;8.226;2023-06-14T16:49:49;30.90;45.30
18894;DHT22;9579;49.488;8.226;2023-06-14T16:52:36;30.80;46.10
18894;DHT22;9579;49.488;8.226;2023-06-14T16:55:23;30.50;46.60
18894;DHT22;9579;49.488;8.226;2023-06-14T16:58:12;30.50;47.60
18894;DHT22;9579;49.488;8.226;2023-06-14T17:00:59;30.00;47.20
18894;DHT22;9579;49.488;8.226;2023-06-14T17:03:46;29.70;47.20
18894;DHT22;9579;49.488;8.226;2023-06-14T17:06:33;29.50;47.40
18894;DHT22;9579;49.488;8.226;2023-06-14T17:09:20;29.50;47.00
18894;DHT22;9579;49.488;8.226;2023-06-14T17:12:07;29.20;47.00
18894;DHT22;9579;49.488;8.226;2023-06-14T17:14:57;28.70;48.60
18894;DHT22;9579;49.488;8.226;2023-06-14T17:17:44;29.00;48.30
18894;DHT22;9579;49.488;8.226;2023-06-14T17:20:31;29.40;48.00
18894;DHT22;9579;49.488;8.226;2023-06-14T17:23:18;29.40;47.70
18894;DHT22;9579;49.488;8.226;2023-06-14T17:26:05;29.50;47.70
18894;DHT22;9579;49.488;8.226;2023-06-14T17:28:53;29.60;48.00
18894;DHT22;9579;49.488;8.226;2023-06-14T17:31:41;29.50;47.50
18894;DHT22;9579;49.488;8.226;2023-06-14T17:34:28;29.50;47.90
18894;DHT22;9579;49.488;8.226;2023-06-14T17:37:15;29.40;47.90
18894;DHT22;9579;49.488;8.226;2023-06-14T17:40:03;29.30;47.80
18894;DHT22;9579;49.488;8.226;2023-06-14T17:42:50;29.30;47.70
18894;DHT22;9579;49.488;8.226;2023-06-14T17:45:37;29.20;47.50
18894;DHT22;9579;49.488;8.226;2023-06-14T17:48:25;28.90;48.70
18894;DHT22;9579;49.488;8.226;2023-06-14T17:51:18;28.70;49.30
18894;DHT22;9579;49.488;8.226;2023-06-14T17:54:06;28.80;51.70
18894;DHT22;9579;49.488;8.226;2023-06-14T17:56:53;28.60;51.30
18894;DHT22;9579;49.488;8.226;2023-06-14T17:59:40;28.40;49.90
18894;DHT22;9579;49.488;8.226;2023-06-14T18:02:27;28.20;51.20
18894;DHT22;9579;49.488;8.226;2023-06-14T18:05:15;28.20;51.60
18894;DHT22;9579;49.488;8.226;2023-06-14T18:08:03;27.90;51.60
18894;DHT22;9579;49.488;8.226;2023-06-14T18:10:51;27.90;57.00
18894;DHT22;9579;49.488;8.226;2023-06-14T18:13:38;28.20;52.50
18894;DHT22;9579;49.488;8.226;2023-06-14T18:16:26;28.10;55.30
18894;DHT22;9579;49.488;8.226;2023-06-14T18:19:13;27.60;51.40
18894;DHT22;9579;49.488;8.226;2023-06-14T18:22:04;27.40;56.50
18894;DHT22;9579;49.488;8.226;2023-06-14T18:24:52;27.50;56.00
18894;DHT22;9579;49.488;8.226;2023-06-14T18:27:39;27.80;55.80
18894;DHT22;9579;49.488;8.226;2023-06-14T18:30:27;27.90;57.70
18894;DHT22;9579;49.488;8.226;2023-06-14T18:33:14;27.90;56.50
18894;DHT22;9579;49.488;8.226;2023-06-14T18:36:02;27.90;55.00
18894;DHT22;9579;49.488;8.226;2023-06-14T18:38:50;27.70;54.50
18894;DHT22;9579;49.488;8.226;2023-06-14T18:41:37;27.50;53.90
18894;DHT22;9579;49.488;8.226;2023-06-14T18:44:25;27.60;55.30
18894;DHT22;9579;49.488;8.226;2023-06-14T18:47:12;27.60;54.10
18894;DHT22;9579;49.488;8.226;2023-06-14T18:49:59;27.30;57.40
18894;DHT22;9579;49.488;8.226;2023-06-14T18:52:46;27.20;52.90
18894;DHT22;9579;49.488;8.226;2023-06-14T18:55:34;27.20;54.80
18894;DHT22;9579;49.488;8.226;2023-06-14T18:58:21;27.30;57.20
18894;DHT22;9579;49.488;8.226;2023-06-14T19:01:08;27.40;57.00
18894;DHT22;9579;49.488;8.226;2023-06-14T19:03:56;27.40;55.70
18894;DHT22;9579;49.488;8.226;2023-06-14T19:06:43;27.30;55.50
18894;DHT22;9579;49.488;8.226;2023-06-14T19:09:30;27.30;56.70
18894;DHT22;9579;49.488;8.226;2023-06-14T19:12:18;27.30;55.50
18894;DHT22;9579;49.488;8.226;2023-06-14T19:15:06;27.20;54.00
18894;DHT22;9579;49.488;8.226;2023-06-14T19:17:54;27.10;54.30
18894;DHT22;9579;49.488;8.226;2023-06-14T19:20:41;26.90;53.80
18894;DHT22;9579;49.488;8.226;2023-06-14T19:23:28;26.80;53.70
18894;DHT22;9579;49.488;8.226;2023-06-14T19:26:16;26.60;54.80
18894;DHT22;9579;49.488;8.226;2023-06-14T19:29:04;26.50;54.10